sensor_id;sensor_type;location;lat;lon;timestamp;pressure;altitude;pressure_sealevel;temperature;humidity
10940;BME280;5522;42.696;23.494;2023-06-22T00:01:16;53859.84;;;-139.68;100.00
10940;BME280;5522;42.696;23.494;2023-06-22T00:03:43;53873.91;;;-139.68;100.00
10940;BME280;5522;42.696;23.494;2023-06-22T00:06:10;53835.72;;;-139.68;100.00
10940;BME280;5522;42.696;23.494;2023-06-22T00:08:36;53851.81;;;-139.68;100.00
10940;BME280;5522;42.696;23.494;2023-06-22T00:11:04;53875.94;;;-139.68;100.00
10940;BME280;5522;42.696;23.494;2023-06-22T00:13:31;53851.81;;;-139.68;100.00
10940;BME280;5522;42.696;23.494;2023-06-22T00:15:58;53843.75;;;-139.68;100.00
10940;BME280;5522;42.696;23.494;2023-06-22T00:18:25;53839.75;;;-139.68;100.00
10940;BME280;5522;42.696;23.494;2023-06-22T00:20:54;53863.88;;;-139.68;100.00
10940;BME280;5522;42.696;23.494;2023-06-22T00:23:23;53849.78;;;-139.68;100.00
10940;BME280;5522;42.696;23.494;2023-06-22T00:25:50;53843.75;;;-139.68;100.00
10940;BME280;5522;42.696;23.494;2023-06-22T00:28:19;53827.69;;;-139.68;100.00
10940;BME280;5522;42.696;23.494;2023-06-22T00:30:46;53851.81;;;-139.68;100.00
10940;BME280;5522;42.696;23.494;2023-06-22T00:33:13;53871.91;;;-139.68;100.00
10940;BME280;5522;42.696;23.494;2023-06-22T00:35:41;53845.78;;;-139.68;100.00
10940;BME280;5522;42.696;23.494;2023-06-22T00:38:08;53871.91;;;-139.68;100.00
10940;BME280;5522;42.696;23.494;2023-06-22T00:40:35;53861.84;;;-139.68;100.00
10940;BME280;5522;42.696;23.494;2023-06-22T00:43:03;53839.75;;;-139.68;100.00
10940;BME280;5522;42.696;23.494;2023-06-22T00:45:31;53888.00;;;-139.68;100.00
10940;BME280;5522;42.696;23.494;2023-06-22T00:47:59;53827.69;;;-139.68;100.00
10940;BME280;5522;42.696;23.494;2023-06-22T00:50:27;53847.78;;;-139.68;100.00
10940;BME280;5522;42.696;23.494;2023-06-22T00:53:00;53827.69;;;-139.68;100.00
10940;BME280;5522;42.696;23.494;2023-06-22T00:55:29;53849.78;;;-139.68;100.00
10940;BME280;5522;42.696;23.494;2023-06-22T00:57:56;53841.75;;;-139.68;100.00
10940;BME280;5522;42.696;23.494;2023-06-22T01:08:44;53851.81;;;-139.68;100.00
10940;BME280;5522;42.696;23.494;2023-06-22T01:11:17;53888.00;;;-139.68;100.00
10940;BME280;5522;42.696;23.494;2023-06-22T01:13:52;53863.88;;;-139.68;100.00
10940;BME280;5522;42.696;23.494;2023-06-22T01:16:26;53885.97;;;-139.68;100.00
10940;BME280;5522;42.696;23.494;2023-06-22T01:18:55;53879.94;;;-139.68;100.00
10940;BME280;5522;42.696;23.494;2023-06-22T01:21:26;53888.00;;;-139.68;100.00
10940;BME280;5522;42.696;23.494;2023-06-22T01:24:10;53851.81;;;-139.68;100.00
10940;BME280;5522;42.696;23.494;2023-06-22T01:26:46;53849.78;;;-139.68;100.00
10940;BME280;5522;42.696;23.494;2023-06-22T01:29:23;53867.88;;;-139.68;100.00
10940;BME280;5522;42.696;23.494;2023-06-22T01:31:51;53837.72;;;-139.68;100.00
10940;BME280;5522;42.696;23.494;2023-06-22T01:34:21;53867.88;;;-139.68;100.00
10940;BME280;5522;42.696;23.494;2023-06-22T01:36:49;53845.78;;;-139.68;100.00
10940;BME280;5522;42.696;23.494;2023-06-22T01:39:17;53855.81;;;-139.68;100.00
10940;BME280;5522;42.696;23.494;2023-06-22T01:41:44;53841.75;;;-139.68;100.00
10940;BME280;5522;42.696;23.494;2023-06-22T01:44:12;53853.81;;;-139.68;100.00
10940;BME280;5522;42.696;23.494;2023-06-22T01:46:40;53853.81;;;-139.68;100.00
10940;BME280;5522;42.696;23.494;2023-06-22T01:49:08;53879.94;;;-139.68;100.00
10940;BME280;5522;42.696;23.494;2023-06-22T01:51:35;53839.75;;;-139.68;100.00
10940;BME280;5522;42.696;23.494;2023-06-22T01:54:02;53871.91;;;-139.68;100.00
10940;BME280;5522;42.696;23.494;2023-06-22T01:56:29;53879.94;;;-139.68;100.00
10940;BME280;5522;42.696;23.494;2023-06-22T01:59:00;53833.72;;;-139.68;100.00
10940;BME280;5522;42.696;23.494;2023-06-22T02:01:35;53843.75;;;-139.68;100.00
10940;BME280;5522;42.696;23.494;2023-06-22T02:04:06;53879.94;;;-139.68;100.00
10940;BME280;5522;42.696;23.494;2023-06-22T02:06:37;53900.06;;;-139.68;100.00
10940;BME280;5522;42.696;23.494;2023-06-22T02:09:08;53809.59;;;-139.68;100.00
10940;BME280;5522;42.696;23.494;2023-06-22T02:11:40;53869.91;;;-139.68;100.00
10940;BME280;5522;42.696;23.494;2023-06-22T02:14:08;53873.91;;;-139.68;100.00
10940;BME280;5522;42.696;23.494;2023-06-22T02:16:35;53888.00;;;-139.68;100.00
10940;BME280;5522;42.696;23.494;2023-06-22T02:19:04;53839.75;;;-139.68;100.00
10940;BME280;5522;42.696;23.494;2023-06-22T02:21:32;53871.91;;;-139.68;100.00
10940;BME280;5522;42.696;23.494;2023-06-22T02:23:59;53851.81;;;-139.68;100.00
10940;BME280;5522;42.696;23.494;2023-06-22T02:26:26;53918.16;;;-139.68;100.00
10940;BME280;5522;42.696;23.494;2023-06-22T02:28:54;53896.03;;;-139.68;100.00
10940;BME280;5522;42.696;23.494;2023-06-22T02:31:20;53851.81;;;-139.68;100.00
10940;BME280;5522;42.696;23.494;2023-06-22T02:33:47;53867.88;;;-139.68;100.00
10940;BME280;5522;42.696;23.494;2023-06-22T02:36:16;53873.91;;;-139.68;100.00
10940;BME280;5522;42.696;23.494;2023-06-22T02:38:50;53879.94;;;-139.68;100.00
10940;BME280;5522;42.696;23.494;2023-06-22T02:41:17;53865.88;;;-139.68;100.00
10940;BME280;5522;42.696;23.494;2023-06-22T02:43:45;53865.88;;;-139.68;100.00
10940;BME280;5522;42.696;23.494;2023-06-22T02:46:12;53892.00;;;-139.68;100.00
10940;BME280;5522;42.696;23.494;2023-06-22T02:48:39;53873.91;;;-139.68;100.00
10940;BME280;5522;42.696;23.494;2023-06-22T02:51:06;53871.91;;;-139.68;100.00
10940;BME280;5522;42.696;23.494;2023-06-22T02:53:34;53839.75;;;-139.68;100.00
10940;BME280;5522;42.696;23.494;2023-06-22T02:56:02;53900.06;;;-139.68;100.00
10940;BME280;5522;42.696;23.494;2023-06-22T02:58:30;53888.00;;;-139.68;100.00
10940;BME280;5522;42.696;23.494;2023-06-22T03:01:04;53875.94;;;-139.68;100.00
10940;BME280;5522;42.696;23.494;2023-06-22T03:03:31;53875.94;;;-139.68;100.00
10940;BME280;5522;42.696;23.494;2023-06-22T03:05:58;53869.91;;;-139.68;100.00
10940;BME280;5522;42.696;23.494;2023-06-22T03:08:26;53831.69;;;-139.68;100.00
10940;BME280;5522;42.696;23.494;2023-06-22T03:10:55;53871.91;;;-139.68;100.00
10940;BME280;5522;42.696;23.494;2023-06-22T03:13:22;53855.81;;;-139.68;100.00
10940;BME280;5522;42.696;23.494;2023-06-22T03:15:49;53857.84;;;-139.68;100.00
10940;BME280;5522;42.696;23.494;2023-06-22T03:18:16;53871.91;;;-139.68;100.00
10940;BME280;5522;42.696;23.494;2023-06-22T03:20:43;53851.81;;;-139.68;100.00
10940;BME280;5522;42.696;23.494;2023-06-22T03:23:10;53831.69;;;-139.68;100.00
10940;BME280;5522;42.696;23.494;2023-06-22T03:25:36;53875.94;;;-139.68;100.00
10940;BME280;5522;42.696;23.494;2023-06-22T03:28:05;53879.94;;;-139.68;100.00
10940;BME280;5522;42.696;23.494;2023-06-22T03:30:32;53900.06;;;-139.68;100.00
10940;BME280;5522;42.696;23.494;2023-06-22T03:32:59;53892.00;;;-139.68;100.00
10940;BME280;5522;42.696;23.494;2023-06-22T03:35:25;53904.06;;;-139.68;100.00
10940;BME280;5522;42.696;23.494;2023-06-22T03:37:52;53839.75;;;-139.68;100.00
10940;BME280;5522;42.696;23.494;2023-06-22T03:40:19;53888.00;;;-139.68;100.00
10940;BME280;5522;42.696;23.494;2023-06-22T03:42:46;53847.78;;;-139.68;100.00
10940;BME280;5522;42.696;23.494;2023-06-22T03:45:14;53871.91;;;-139.68;100.00
10940;BME280;5522;42.696;23.494;2023-06-22T03:47:41;53906.06;;;-139.68;100.00
10940;BME280;5522;42.696;23.494;2023-06-22T03:50:09;53859.84;;;-139.68;100.00
10940;BME280;5522;42.696;23.494;2023-06-22T03:52:35;53888.00;;;-139.68;100.00
10940;BME280;5522;42.696;23.494;2023-06-22T03:55:03;53916.13;;;-139.68;100.00
10940;BME280;5522;42.696;23.494;2023-06-22T03:57:30;53859.84;;;-139.68;100.00
10940;BME280;5522;42.696;23.494;2023-06-22T03:59:57;53857.84;;;-139.68;97.73
10940;BME280;5522;42.696;23.494;2023-06-22T04:02:25;53875.94;;;-139.68;93.91
10940;BME280;5522;42.696;23.494;2023-06-22T04:04:52;53875.94;;;-139.68;90.64
10940;BME280;5522;42.696;23.494;2023-06-22T04:07:19;53867.88;;;-139.68;88.93
10940;BME280;5522;42.696;23.494;2023-06-22T04:09:46;53845.78;;;-139.68;88.90
10940;BME280;5522;42.696;23.494;2023-06-22T04:12:13;53912.13;;;-139.68;91.13
10940;BME280;5522;42.696;23.494;2023-06-22T04:14:40;53875.94;;;-139.68;91.63
10940;BME280;5522;42.696;23.494;2023-06-22T04:17:06;53888.00;;;-139.68;93.11
10940;BME280;5522;42.696;23.494;2023-06-22T04:19:35;53910.09;;;-139.68;94.71
10940;BME280;5522;42.696;23.494;2023-06-22T04:22:02;53873.91;;;-139.68;95.12
10940;BME280;5522;42.696;23.494;2023-06-22T04:24:28;53849.78;;;-139.68;92.75
10940;BME280;5522;42.696;23.494;2023-06-22T04:26:55;53869.91;;;-139.68;93.15
10940;BME280;5522;42.696;23.494;2023-06-22T04:29:22;53861.84;;;-139.68;93.87
10940;BME280;5522;42.696;23.494;2023-06-22T04:31:54;53843.75;;;-139.68;95.03
10940;BME280;5522;42.696;23.494;2023-06-22T04:34:23;53869.91;;;-139.68;94.87
10940;BME280;5522;42.696;23.494;2023-06-22T04:36:52;53875.94;;;-139.68;90.93
10940;BME280;5522;42.696;23.494;2023-06-22T04:39:20;53859.84;;;-139.68;89.89
10940;BME280;5522;42.696;23.494;2023-06-22T04:41:47;53873.91;;;-139.68;87.05
10940;BME280;5522;42.696;23.494;2023-06-22T04:44:14;53851.81;;;-139.68;84.02
10940;BME280;5522;42.696;23.494;2023-06-22T04:46:50;53863.88;;;-139.68;78.62
10940;BME280;5522;42.696;23.494;2023-06-22T04:49:19;53900.06;;;-139.68;77.42
10940;BME280;5522;42.696;23.494;2023-06-22T04:51:47;53875.94;;;-139.68;71.57
10940;BME280;5522;42.696;23.494;2023-06-22T04:54:15;53865.88;;;-139.68;64.95
10940;BME280;5522;42.696;23.494;2023-06-22T04:56:42;53851.81;;;-139.68;65.51
10940;BME280;5522;42.696;23.494;2023-06-22T04:59:12;53867.88;;;-139.68;62.29
10940;BME280;5522;42.696;23.494;2023-06-22T05:01:39;53863.88;;;-139.68;61.51
10940;BME280;5522;42.696;23.494;2023-06-22T05:04:06;53851.81;;;-139.68;61.51
10940;BME280;5522;42.696;23.494;2023-06-22T05:06:33;53873.91;;;-139.68;56.55
10940;BME280;5522;42.696;23.494;2023-06-22T05:09:00;53875.94;;;-139.68;55.67
10940;BME280;5522;42.696;23.494;2023-06-22T05:11:30;53859.84;;;-139.68;50.76
10940;BME280;5522;42.696;23.494;2023-06-22T05:13:56;53867.88;;;-139.68;51.20
10940;BME280;5522;42.696;23.494;2023-06-22T05:16:24;53904.06;;;-139.68;48.73
10940;BME280;5522;42.696;23.494;2023-06-22T05:18:52;53849.78;;;-139.68;48.57
10940;BME280;5522;42.696;23.494;2023-06-22T05:21:22;53900.06;;;-139.68;47.55
10940;BME280;5522;42.696;23.494;2023-06-22T05:23:49;53879.94;;;-139.68;45.06
10940;BME280;5522;42.696;23.494;2023-06-22T05:26:16;53892.00;;;-139.68;45.41
10940;BME280;5522;42.696;23.494;2023-06-22T05:28:44;53896.03;;;-139.68;47.99
10940;BME280;5522;42.696;23.494;2023-06-22T05:31:13;53859.84;;;-139.68;48.87
10940;BME280;5522;42.696;23.494;2023-06-22T05:33:40;53861.84;;;-139.68;49.91
10940;BME280;5522;42.696;23.494;2023-06-22T05:36:07;53861.84;;;-139.68;49.89
10940;BME280;5522;42.696;23.494;2023-06-22T05:38:35;53855.81;;;-139.68;50.01
10940;BME280;5522;42.696;23.494;2023-06-22T05:41:02;53900.06;;;-139.68;45.30
10940;BME280;5522;42.696;23.494;2023-06-22T05:43:29;53867.88;;;-139.68;44.28
10940;BME280;5522;42.696;23.494;2023-06-22T05:45:57;53896.03;;;-139.68;44.84
10940;BME280;5522;42.696;23.494;2023-06-22T05:48:24;53918.16;;;-139.68;43.41
10940;BME280;5522;42.696;23.494;2023-06-22T05:50:51;53885.97;;;-139.68;42.03
10940;BME280;5522;42.696;23.494;2023-06-22T05:53:18;53881.97;;;-139.68;43.97
10940;BME280;5522;42.696;23.494;2023-06-22T05:55:45;53865.88;;;-139.68;42.80
10940;BME280;5522;42.696;23.494;2023-06-22T05:58:12;53883.97;;;-139.68;42.15
10940;BME280;5522;42.696;23.494;2023-06-22T06:00:40;53875.94;;;-139.68;42.29
10940;BME280;5522;42.696;23.494;2023-06-22T06:03:10;53902.06;;;-139.68;41.40
10940;BME280;5522;42.696;23.494;2023-06-22T06:05:37;53877.94;;;-139.68;40.57
10940;BME280;5522;42.696;23.494;2023-06-22T06:08:06;53881.97;;;-139.68;40.96
10940;BME280;5522;42.696;23.494;2023-06-22T06:10:33;53890.00;;;-139.68;39.76
10940;BME280;5522;42.696;23.494;2023-06-22T06:13:00;53869.91;;;-139.68;38.84
10940;BME280;5522;42.696;23.494;2023-06-22T06:15:30;53871.91;;;-139.68;39.26
10940;BME280;5522;42.696;23.494;2023-06-22T06:17:57;53865.88;;;-139.68;39.68
10940;BME280;5522;42.696;23.494;2023-06-22T06:20:26;53883.97;;;-139.68;39.53
10940;BME280;5522;42.696;23.494;2023-06-22T06:22:54;53879.94;;;-139.68;38.41
10940;BME280;5522;42.696;23.494;2023-06-22T06:25:21;53928.19;;;-139.68;40.91
10940;BME280;5522;42.696;23.494;2023-06-22T06:27:49;53847.78;;;-139.68;39.34
10940;BME280;5522;42.696;23.494;2023-06-22T06:30:17;53855.81;;;-139.68;40.25
10940;BME280;5522;42.696;23.494;2023-06-22T06:32:46;53890.00;;;-139.68;38.98
10940;BME280;5522;42.696;23.494;2023-06-22T06:35:14;53849.78;;;-139.68;37.88
10940;BME280;5522;42.696;23.494;2023-06-22T06:37:48;53877.94;;;-139.68;38.91
10940;BME280;5522;42.696;23.494;2023-06-22T06:40:16;53883.97;;;-139.68;39.33
10940;BME280;5522;42.696;23.494;2023-06-22T06:42:44;53877.94;;;-139.68;38.39
10940;BME280;5522;42.696;23.494;2023-06-22T06:45:13;53890.00;;;-139.68;38.11
10940;BME280;5522;42.696;23.494;2023-06-22T06:47:40;53867.88;;;-139.68;36.63
10940;BME280;5522;42.696;23.494;2023-06-22T06:50:07;53888.00;;;-139.68;36.69
10940;BME280;5522;42.696;23.494;2023-06-22T06:52:34;53883.97;;;-139.68;34.33
10940;BME280;5522;42.696;23.494;2023-06-22T06:55:03;53877.94;;;-139.68;36.59
10940;BME280;5522;42.696;23.494;2023-06-22T06:57:33;53908.09;;;-139.68;35.89
10940;BME280;5522;42.696;23.494;2023-06-22T07:00:00;53871.91;;;-139.68;35.08
10940;BME280;5522;42.696;23.494;2023-06-22T07:02:32;53839.75;;;-139.68;36.51
10940;BME280;5522;42.696;23.494;2023-06-22T07:04:59;53863.88;;;-139.68;37.25
10940;BME280;5522;42.696;23.494;2023-06-22T07:07:26;53896.03;;;-139.68;36.60
10940;BME280;5522;42.696;23.494;2023-06-22T07:09:52;53867.88;;;-139.68;34.04
10940;BME280;5522;42.696;23.494;2023-06-22T07:12:21;53890.00;;;-139.68;32.37
10940;BME280;5522;42.696;23.494;2023-06-22T07:14:47;53871.91;;;-139.68;32.67
10940;BME280;5522;42.696;23.494;2023-06-22T07:17:15;53863.88;;;-139.68;31.35
10940;BME280;5522;42.696;23.494;2023-06-22T07:19:42;53892.00;;;-139.68;32.12
10940;BME280;5522;42.696;23.494;2023-06-22T07:22:09;53873.91;;;-139.68;32.88
10940;BME280;5522;42.696;23.494;2023-06-22T07:24:35;53924.16;;;-139.68;35.29
10940;BME280;5522;42.696;23.494;2023-06-22T07:27:03;53900.06;;;-139.68;32.94
10940;BME280;5522;42.696;23.494;2023-06-22T07:29:33;53896.03;;;-139.68;33.98
10940;BME280;5522;42.696;23.494;2023-06-22T07:32:01;53847.78;;;-139.68;33.60
10940;BME280;5522;42.696;23.494;2023-06-22T07:34:30;53879.94;;;-139.68;33.46
10940;BME280;5522;42.696;23.494;2023-06-22T07:36:57;53881.97;;;-139.68;32.51
10940;BME280;5522;42.696;23.494;2023-06-22T07:39:23;53871.91;;;-139.68;32.24
10940;BME280;5522;42.696;23.494;2023-06-22T07:41:52;53879.94;;;-139.68;30.90
10940;BME280;5522;42.696;23.494;2023-06-22T07:44:19;53877.94;;;-139.68;31.17
10940;BME280;5522;42.696;23.494;2023-06-22T07:46:47;53871.91;;;-139.68;29.71
10940;BME280;5522;42.696;23.494;2023-06-22T07:49:14;53892.00;;;-139.68;29.19
10940;BME280;5522;42.696;23.494;2023-06-22T07:51:40;53867.88;;;-139.68;29.13
10940;BME280;5522;42.696;23.494;2023-06-22T07:54:09;53843.75;;;-139.68;29.21
10940;BME280;5522;42.696;23.494;2023-06-22T07:56:36;53859.84;;;-139.68;30.32
10940;BME280;5522;42.696;23.494;2023-06-22T07:59:03;53879.94;;;-139.68;30.27
10940;BME280;5522;42.696;23.494;2023-06-22T08:01:30;53847.78;;;-139.68;30.84
10940;BME280;5522;42.696;23.494;2023-06-22T08:03:58;53873.91;;;-139.68;29.44
10940;BME280;5522;42.696;23.494;2023-06-22T08:06:25;53863.88;;;-139.68;30.12
10940;BME280;5522;42.696;23.494;2023-06-22T08:08:51;53879.94;;;-139.68;29.00
10940;BME280;5522;42.696;23.494;2023-06-22T08:11:20;53871.91;;;-139.68;30.08
10940;BME280;5522;42.696;23.494;2023-06-22T08:13:48;53837.72;;;-139.68;28.75
10940;BME280;5522;42.696;23.494;2023-06-22T08:16:15;53877.94;;;-139.68;29.39
10940;BME280;5522;42.696;23.494;2023-06-22T08:18:42;53869.91;;;-139.68;28.54
10940;BME280;5522;42.696;23.494;2023-06-22T08:21:10;53865.88;;;-139.68;29.36
10940;BME280;5522;42.696;23.494;2023-06-22T08:23:37;53827.69;;;-139.68;27.37
10940;BME280;5522;42.696;23.494;2023-06-22T08:26:04;53839.75;;;-139.68;27.89
10940;BME280;5522;42.696;23.494;2023-06-22T08:28:31;53853.81;;;-139.68;28.55
10940;BME280;5522;42.696;23.494;2023-06-22T08:30:57;53879.94;;;-139.68;29.75
10940;BME280;5522;42.696;23.494;2023-06-22T08:33:24;53892.00;;;-139.68;30.27
10940;BME280;5522;42.696;23.494;2023-06-22T08:35:53;53851.81;;;-139.68;31.33
10940;BME280;5522;42.696;23.494;2023-06-22T08:38:22;53861.84;;;-139.68;30.28
10940;BME280;5522;42.696;23.494;2023-06-22T08:40:49;53831.69;;;-139.68;28.61
10940;BME280;5522;42.696;23.494;2023-06-22T08:43:15;53839.75;;;-139.68;27.91
10940;BME280;5522;42.696;23.494;2023-06-22T08:45:42;53835.72;;;-139.68;27.57
10940;BME280;5522;42.696;23.494;2023-06-22T08:48:09;53831.69;;;-139.68;26.47
10940;BME280;5522;42.696;23.494;2023-06-22T08:50:36;53807.56;;;-139.68;26.22
10940;BME280;5522;42.696;23.494;2023-06-22T08:53:02;53847.78;;;-139.68;25.21
10940;BME280;5522;42.696;23.494;2023-06-22T08:55:31;53833.72;;;-139.68;26.91
10940;BME280;5522;42.696;23.494;2023-06-22T08:57:57;53859.84;;;-139.68;27.37
10940;BME280;5522;42.696;23.494;2023-06-22T09:00:24;53879.94;;;-139.68;28.11
10940;BME280;5522;42.696;23.494;2023-06-22T09:02:52;53849.78;;;-139.68;28.08
10940;BME280;5522;42.696;23.494;2023-06-22T09:05:19;53843.75;;;-139.68;26.09
10940;BME280;5522;42.696;23.494;2023-06-22T09:07:47;53900.06;;;-139.68;26.88
10940;BME280;5522;42.696;23.494;2023-06-22T09:10:14;53831.69;;;-139.68;25.88
10940;BME280;5522;42.696;23.494;2023-06-22T09:12:42;53823.66;;;-139.68;26.77
10940;BME280;5522;42.696;23.494;2023-06-22T09:15:09;53847.78;;;-139.68;26.93
10940;BME280;5522;42.696;23.494;2023-06-22T09:17:36;53835.72;;;-139.68;26.76
10940;BME280;5522;42.696;23.494;2023-06-22T09:20:04;53843.75;;;-139.68;26.05
10940;BME280;5522;42.696;23.494;2023-06-22T09:22:33;53817.63;;;-139.68;25.46
10940;BME280;5522;42.696;23.494;2023-06-22T09:25:00;53791.50;;;-139.68;26.21
10940;BME280;5522;42.696;23.494;2023-06-22T09:27:28;53807.56;;;-139.68;25.17
10940;BME280;5522;42.696;23.494;2023-06-22T09:29:56;53861.84;;;-139.68;26.11
10940;BME280;5522;42.696;23.494;2023-06-22T09:32:23;53883.97;;;-139.68;25.92
10940;BME280;5522;42.696;23.494;2023-06-22T09:34:50;53865.88;;;-139.68;26.27
10940;BME280;5522;42.696;23.494;2023-06-22T09:37:18;53851.81;;;-139.68;26.91
10940;BME280;5522;42.696;23.494;2023-06-22T09:39:45;53871.91;;;-139.68;27.57
10940;BME280;5522;42.696;23.494;2023-06-22T09:42:12;53839.75;;;-139.68;27.13
10940;BME280;5522;42.696;23.494;2023-06-22T09:44:39;53863.88;;;-139.68;28.15
10940;BME280;5522;42.696;23.494;2023-06-22T09:47:07;53871.91;;;-139.68;28.96
10940;BME280;5522;42.696;23.494;2023-06-22T09:49:34;53900.06;;;-139.68;30.29
10940;BME280;5522;42.696;23.494;2023-06-22T09:52:01;53885.97;;;-139.68;30.64
10940;BME280;5522;42.696;23.494;2023-06-22T09:54:28;53898.03;;;-139.68;30.62
10940;BME280;5522;42.696;23.494;2023-06-22T09:56:54;53928.19;;;-139.68;32.19
10940;BME280;5522;42.696;23.494;2023-06-22T09:59:21;53920.16;;;-139.68;34.29
10940;BME280;5522;42.696;23.494;2023-06-22T10:01:48;53922.16;;;-139.68;33.78
10940;BME280;5522;42.696;23.494;2023-06-22T10:04:16;53926.19;;;-139.68;33.62
10940;BME280;5522;42.696;23.494;2023-06-22T10:06:43;53916.13;;;-139.68;33.79
10940;BME280;5522;42.696;23.494;2023-06-22T10:09:10;53912.13;;;-139.68;31.19
10940;BME280;5522;42.696;23.494;2023-06-22T10:11:37;53932.22;;;-139.68;35.74
10940;BME280;5522;42.696;23.494;2023-06-22T10:14:04;53944.28;;;-139.68;35.11
10940;BME280;5522;42.696;23.494;2023-06-22T10:16:31;53916.13;;;-139.68;37.96
10940;BME280;5522;42.696;23.494;2023-06-22T10:18:58;53914.13;;;-139.68;34.94
10940;BME280;5522;42.696;23.494;2023-06-22T10:21:26;53879.94;;;-139.68;34.95
10940;BME280;5522;42.696;23.494;2023-06-22T10:23:54;53920.16;;;-139.68;35.24
10940;BME280;5522;42.696;23.494;2023-06-22T10:26:21;53958.34;;;-139.68;33.75
10940;BME280;5522;42.696;23.494;2023-06-22T10:28:48;53916.13;;;-139.68;33.83
10940;BME280;5522;42.696;23.494;2023-06-22T10:31:14;53904.06;;;-139.68;35.01
10940;BME280;5522;42.696;23.494;2023-06-22T10:33:42;53930.22;;;-139.68;36.49
10940;BME280;5522;42.696;23.494;2023-06-22T10:36:09;53912.13;;;-139.68;34.92
10940;BME280;5522;42.696;23.494;2023-06-22T10:38:38;53940.25;;;-139.68;34.19
10940;BME280;5522;42.696;23.494;2023-06-22T10:41:05;53912.13;;;-139.68;37.08
10940;BME280;5522;42.696;23.494;2023-06-22T10:43:32;53888.00;;;-139.68;33.64
10940;BME280;5522;42.696;23.494;2023-06-22T10:45:59;53940.25;;;-139.68;35.41
10940;BME280;5522;42.696;23.494;2023-06-22T10:48:25;53908.09;;;-139.68;35.74
10940;BME280;5522;42.696;23.494;2023-06-22T10:50:52;53871.91;;;-139.68;35.78
10940;BME280;5522;42.696;23.494;2023-06-22T10:53:20;53914.13;;;-139.68;34.69
10940;BME280;5522;42.696;23.494;2023-06-22T10:55:48;53908.09;;;-139.68;35.18
10940;BME280;5522;42.696;23.494;2023-06-22T10:58:17;53952.31;;;-139.68;35.52
10940;BME280;5522;42.696;23.494;2023-06-22T11:00:44;53881.97;;;-139.68;32.99
10940;BME280;5522;42.696;23.494;2023-06-22T11:03:11;53910.09;;;-139.68;33.12
10940;BME280;5522;42.696;23.494;2023-06-22T11:05:39;53910.09;;;-139.68;32.50
10940;BME280;5522;42.696;23.494;2023-06-22T11:08:06;53932.22;;;-139.68;37.58
10940;BME280;5522;42.696;23.494;2023-06-22T11:10:33;53879.94;;;-139.68;36.83
10940;BME280;5522;42.696;23.494;2023-06-22T11:13:02;53920.16;;;-139.68;36.23
10940;BME280;5522;42.696;23.494;2023-06-22T11:15:29;53912.13;;;-139.68;34.14
10940;BME280;5522;42.696;23.494;2023-06-22T11:17:56;53926.19;;;-139.68;33.50
10940;BME280;5522;42.696;23.494;2023-06-22T11:20:23;53900.06;;;-139.68;32.66
10940;BME280;5522;42.696;23.494;2023-06-22T11:22:50;53918.16;;;-139.68;32.22
10940;BME280;5522;42.696;23.494;2023-06-22T11:25:17;53936.22;;;-139.68;32.94
10940;BME280;5522;42.696;23.494;2023-06-22T11:27:44;53932.22;;;-139.68;33.37
10940;BME280;5522;42.696;23.494;2023-06-22T11:30:12;53928.19;;;-139.68;32.64
10940;BME280;5522;42.696;23.494;2023-06-22T11:32:39;53916.13;;;-139.68;32.13
10940;BME280;5522;42.696;23.494;2023-06-22T11:35:06;53900.06;;;-139.68;33.98
10940;BME280;5522;42.696;23.494;2023-06-22T11:37:33;53908.09;;;-139.68;33.42
10940;BME280;5522;42.696;23.494;2023-06-22T11:40:00;53940.25;;;-139.68;33.53
10940;BME280;5522;42.696;23.494;2023-06-22T11:42:28;53924.16;;;-139.68;33.58
10940;BME280;5522;42.696;23.494;2023-06-22T11:44:55;53936.22;;;-139.68;34.40
10940;BME280;5522;42.696;23.494;2023-06-22T11:47:23;53932.22;;;-139.68;34.47
10940;BME280;5522;42.696;23.494;2023-06-22T11:49:50;53885.97;;;-139.68;35.46
10940;BME280;5522;42.696;23.494;2023-06-22T11:52:17;53934.22;;;-139.68;36.06
10940;BME280;5522;42.696;23.494;2023-06-22T11:54:44;53888.00;;;-139.68;36.42
10940;BME280;5522;42.696;23.494;2023-06-22T11:57:12;53908.09;;;-139.68;37.71
10940;BME280;5522;42.696;23.494;2023-06-22T11:59:39;53875.94;;;-139.68;57.80
10940;BME280;5522;42.696;23.494;2023-06-22T12:02:06;53881.97;;;-139.68;75.69
10940;BME280;5522;42.696;23.494;2023-06-22T12:04:34;53928.19;;;-139.68;82.34
10940;BME280;5522;42.696;23.494;2023-06-22T12:07:01;53930.22;;;-139.68;80.50
10940;BME280;5522;42.696;23.494;2023-06-22T12:09:28;53926.19;;;-139.68;81.79
10940;BME280;5522;42.696;23.494;2023-06-22T12:11:55;53875.94;;;-139.68;87.02
10940;BME280;5522;42.696;23.494;2023-06-22T12:14:21;53930.22;;;-139.68;86.63
10940;BME280;5522;42.696;23.494;2023-06-22T12:16:48;53875.94;;;-139.68;90.09
10940;BME280;5522;42.696;23.494;2023-06-22T12:19:15;53924.16;;;-139.68;87.86
10940;BME280;5522;42.696;23.494;2023-06-22T12:21:43;53875.94;;;-139.68;86.89
10940;BME280;5522;42.696;23.494;2023-06-22T12:24:11;53904.06;;;-139.68;90.59
10940;BME280;5522;42.696;23.494;2023-06-22T12:26:38;53908.09;;;-139.68;92.56
10940;BME280;5522;42.696;23.494;2023-06-22T12:29:05;53908.09;;;-139.68;92.13
10940;BME280;5522;42.696;23.494;2023-06-22T12:31:31;53863.88;;;-139.68;91.47
10940;BME280;5522;42.696;23.494;2023-06-22T12:33:58;53908.09;;;-139.68;92.03
10940;BME280;5522;42.696;23.494;2023-06-22T12:36:25;53920.16;;;-139.68;88.36
10940;BME280;5522;42.696;23.494;2023-06-22T12:38:53;53879.94;;;-139.68;92.00
10940;BME280;5522;42.696;23.494;2023-06-22T12:41:20;53914.13;;;-139.68;88.90
10940;BME280;5522;42.696;23.494;2023-06-22T12:43:47;53879.94;;;-139.68;85.17
10940;BME280;5522;42.696;23.494;2023-06-22T12:46:14;53928.19;;;-139.68;74.53
10940;BME280;5522;42.696;23.494;2023-06-22T12:48:41;53902.06;;;-139.68;73.18